ADDS METAR Data INFO
IDs: Format: Raw Decoded Include TAF

Data at: 2044 UTC 19 Jul 2018

KMEV 192035Z AUTO 32007KT 230V340 10SM CLR 35/M02 A3012 RMK AO2
KMEV 192015Z AUTO 33007KT 10SM 34/M02 A3013 RMK AO2
KMEV 191935Z AUTO 10SM RMK AO2 PWINO
KMEV 191915Z AUTO 00000KT 10SM CLR 32/02 A3015 RMK AO2
KMEV 191855Z AUTO 27003KT 10SM CLR 32/05 A3016 RMK AO2
KMEV 191835Z AUTO 30006KT 10SM CLR 30/05 A3017 RMK AO2
KMEV 191815Z AUTO 00000KT 10SM CLR 30/05 A3017 RMK AO2
KMEV 191755Z AUTO 24003KT 10SM CLR 29/05 A3018 RMK AO2
KMEV 191735Z AUTO 23003KT 10SM CLR 28/04 A3019 RMK AO2
KMEV 191715Z AUTO 21005KT 10SM CLR 27/02 A3019 RMK AO2
KMEV 191655Z AUTO 19003KT 10SM CLR 25/04 A3019 RMK AO2
KMEV 191635Z AUTO 00000KT 10SM CLR 24/05 A3020 RMK AO2
KMEV 191615Z AUTO 20005KT 10SM CLR 23/04 A3021 RMK AO2
KMEV 191555Z AUTO 21004KT 10SM CLR 22/04 A3021 RMK AO2
KMEV 191535Z AUTO 21004KT 10SM CLR 21/02 A3021 RMK AO2
KMEV 191515Z AUTO 00000KT 10SM CLR 19/02 A3021 RMK AO2
KMEV 191455Z AUTO 00000KT 10SM CLR 18/01 A3021 RMK AO2
KMEV 191435Z AUTO 00000KT 10SM CLR 17/02 A3021 RMK AO2
KMEV 191415Z AUTO 00000KT 10SM CLR 14/04 A3021 RMK AO2
KMEV 191355Z AUTO 00000KT 10SM CLR 12/04 A3021 RMK AO2
KMEV 191335Z AUTO 00000KT 10SM CLR 11/04 A3021 RMK AO2
KMEV 191315Z AUTO 15003KT 10SM CLR 09/04 A3020 RMK AO2
KMEV 191255Z AUTO 07003KT 10SM CLR 10/04 A3020 RMK AO2
KMEV 191235Z AUTO 12004KT 10SM CLR 08/04 A3020 RMK AO2
KMEV 191215Z AUTO 09004KT 10SM CLR 10/04 A3019 RMK AO2
KMEV 191155Z AUTO 14004KT 10SM CLR 09/03 A3019 RMK AO2
KMEV 191135Z AUTO 00000KT 10SM CLR 10/04 A3020 RMK AO2
KMEV 191115Z AUTO 00000KT 10SM CLR 12/04 A3020 RMK AO2
KMEV 191055Z AUTO 06003KT 10SM CLR 11/05 A3020 RMK AO2
KMEV 191035Z AUTO 12003KT 10SM CLR 11/03 A3020 RMK AO2
KMEV 191015Z AUTO 00000KT 10SM CLR 13/03 A3020 RMK AO2
KMEV 190955Z AUTO 20004KT 10SM CLR 13/02 A3020 RMK AO2
KMEV 190935Z AUTO 12005KT 10SM CLR 12/02 A3020 RMK AO2
KMEV 190915Z AUTO 11006KT 10SM CLR 12/04 A3020 RMK AO2
KMEV 190855Z AUTO 08004KT 10SM CLR 11/05 A3020 RMK AO2
KMEV 190835Z AUTO 13003KT 10SM CLR 12/04 A3020 RMK AO2
KMEV 190815Z AUTO 00000KT 10SM CLR 13/05 A3020 RMK AO2
KMEV 190755Z AUTO 00000KT 10SM CLR 15/04 A3020 RMK AO2
KMEV 190735Z AUTO 05007KT 10SM CLR 15/02 A3020 RMK AO2
KMEV 190715Z AUTO 12010KT 10SM CLR 15/02 A3019 RMK AO2
KMEV 190655Z AUTO 11010KT 10SM CLR 15/04 A3019 RMK AO2
KMEV 190635Z AUTO 12009KT 10SM CLR 17/04 A3019 RMK AO2
KMEV 190615Z AUTO 14005KT 10SM CLR 16/07 A3019 RMK AO2
KMEV 190555Z AUTO 20003KT 10SM CLR 17/05 A3019 RMK AO2
KMEV 190535Z AUTO 15006KT 10SM CLR 18/05 A3018 RMK AO2
KMEV 190515Z AUTO 16005KT 10SM CLR 22/04 A3017 RMK AO2
KMEV 190455Z AUTO 13006KT 10SM CLR 19/04 A3017 RMK AO2
KMEV 190435Z AUTO 13005KT 10SM CLR 23/03 A3016 RMK AO2
KMEV 190415Z AUTO 05003KT 10SM CLR 25/02 A3015 RMK AO2
KMEV 190355Z AUTO 29004KT 10SM CLR 27/03 A3015 RMK AO2
KMEV 190335Z AUTO 10SM CLR 28/02 A3014 RMK AO2
KMEV 190315Z AUTO 10SM CLR 29/02 A3014 RMK AO2
KMEV 190255Z AUTO 10SM CLR 30/02 A3014 RMK AO2
KMEV 190235Z AUTO 32003KT 10SM CLR 31/02 A3014 RMK AO2
KMEV 190215Z AUTO 35006KT 9SM CLR 32/00 A3014 RMK AO2
KMEV 190155Z AUTO 27012G19KT 8SM CLR 33/00 A3013 RMK AO2
KMEV 190135Z AUTO 29012G17KT 8SM CLR 33/00 A3013 RMK AO2
KMEV 190115Z AUTO 28013G20KT 6SM HZ CLR 34/00 A3013 RMK AO2
KMEV 190055Z AUTO 30011KT 5SM HZ CLR 34/00 A3014 RMK AO2
KMEV 190035Z AUTO 30011G17KT 5SM HZ CLR 34/00 A3014 RMK AO2
KMEV 190015Z AUTO 31012G18KT 5SM HZ CLR 34/02 A3014 RMK AO2
KMEV 182355Z AUTO 30013G16KT 5SM HZ CLR 35/02 A3015 RMK AO2
KMEV 182335Z AUTO 30010G19KT 3SM HZ CLR 35/02 A3014 RMK AO2
KMEV 182315Z AUTO 31016KT 3SM HZ CLR 35/02 A3015 RMK AO2
KMEV 182255Z AUTO 31013KT 3SM HZ CLR 35/03 A3015 RMK AO2
KMEV 182235Z AUTO 30011KT 3SM HZ CLR 35/02 A3015 RMK AO2
KMEV 182215Z AUTO 31011G17KT 3SM HZ CLR 36/02 A3016 RMK AO2
KMEV 182155Z AUTO 29012G17KT 3SM HZ CLR 35/03 A3016 RMK AO2
KMEV 182135Z AUTO 31009G14KT 3SM HZ CLR 35/00 A3016 RMK AO2
KMEV 182115Z AUTO 27010KT 3SM HZ CLR 35/03 A3017 RMK AO2
KMEV 182055Z AUTO 25009KT 3SM HZ CLR 35/02 A3018 RMK AO2
KMEV 182035Z AUTO 29006KT 210V290 3SM HZ CLR 35/02 A3018 RMK AO2
KMEV 182015Z AUTO 26005KT 3SM HZ 34/03 A3019 RMK AO2
KMEV 181935Z AUTO 00000KT 5SM HZ CLR 33/01 A3020 RMK AO2
KMEV 181915Z AUTO 00000KT 7SM CLR 32/01 A3021 RMK AO2
KMEV 181855Z AUTO 30005KT 6SM HZ CLR 31/03 A3022 RMK AO2
KMEV 181835Z AUTO 34004KT 8SM CLR 30/05 A3023 RMK AO2
KMEV 181815Z AUTO 00000KT 9SM CLR 30/05 A3023 RMK AO2
KMEV 181755Z AUTO 20003KT 8SM CLR 29/05 A3023 RMK AO2
KMEV 181735Z AUTO 22005KT 7SM CLR 27/06 A3023 RMK AO2
KMEV 181715Z AUTO 00000KT 5SM HZ CLR 25/07 A3024 RMK AO2
KMEV 181655Z AUTO 23003KT 5SM HZ CLR 24/05 A3024 RMK AO2
KMEV 181635Z AUTO 20004KT 5SM HZ CLR 23/04 A3025 RMK AO2
KMEV 181615Z AUTO 15003KT 5SM HZ CLR 22/03 A3025 RMK AO2
KMEV 181555Z AUTO 00000KT 5SM HZ CLR 21/03 A3025 RMK AO2
KMEV 181535Z AUTO 00000KT 5SM HZ CLR 20/03 A3025 RMK AO2
KMEV 181515Z AUTO 00000KT 5SM HZ CLR 18/04 A3025 RMK AO2
KMEV 181455Z AUTO 00000KT 7SM CLR 17/04 A3025 RMK AO2
KMEV 181435Z AUTO 00000KT 8SM CLR 15/04 A3025 RMK AO2
KMEV 181415Z AUTO 00000KT 7SM CLR 13/05 A3025 RMK AO2
KMEV 181355Z AUTO 00000KT 7SM CLR 11/05 A3025 RMK AO2
KMEV 181335Z AUTO 10003KT 6SM HZ CLR 09/05 A3024 RMK AO2
KMEV 181315Z AUTO 00000KT 7SM CLR 09/05 A3024 RMK AO2
KMEV 181255Z AUTO 00000KT 9SM CLR 08/04 A3024 RMK AO2
KMEV 181235Z AUTO 11005KT 9SM CLR 09/04 A3024 RMK AO2
KMEV 181215Z AUTO 13005KT 10SM CLR 08/04 A3024 RMK AO2
KMEV 181155Z AUTO 00000KT 9SM CLR 09/05 A3024 RMK AO2
KMEV 181135Z AUTO 00000KT 9SM CLR 10/05 A3023 RMK AO2
KMEV 181115Z AUTO 00000KT 10SM CLR 10/04 A3023 RMK AO2
KMEV 181055Z AUTO 11005KT 9SM CLR 11/04 A3023 RMK AO2
KMEV 181035Z AUTO 12005KT 10SM CLR 11/04 A3023 RMK AO2
KMEV 181015Z AUTO 11005KT 10SM CLR 11/05 A3023 RMK AO2
KMEV 180955Z AUTO 06004KT 10SM CLR 12/04 A3023 RMK AO2
KMEV 180935Z AUTO 05005KT 10SM CLR 12/04 A3023 RMK AO2
KMEV 180915Z AUTO 10004KT 10SM CLR 12/04 A3023 RMK AO2
KMEV 180855Z AUTO 15006KT 10SM CLR 13/04 A3023 RMK AO2